sensor_id;sensor_type;location;lat;lon;timestamp;pressure;altitude;pressure_sealevel;temperature;humidity
9325;BME280;4701;51.566;6.776;2022-07-23T05:03:17;101544.44;;;13.86;100.00
9325;BME280;4701;51.566;6.776;2022-07-23T05:05:21;101550.47;;;13.88;100.00
9325;BME280;4701;51.566;6.776;2022-07-23T05:07:25;101536.22;;;13.91;100.00
9325;BME280;4701;51.566;6.776;2022-07-23T05:09:27;101546.66;;;13.99;100.00
9325;BME280;4701;51.566;6.776;2022-07-23T05:11:29;101549.44;;;14.10;100.00
9325;BME280;4701;51.566;6.776;2022-07-23T05:13:31;101554.41;;;14.18;100.00
9325;BME280;4701;51.566;6.776;2022-07-23T05:15:33;101556.34;;;14.27;100.00
9325;BME280;4701;51.566;6.776;2022-07-23T05:17:36;101556.09;;;14.39;100.00
9325;BME280;4701;51.566;6.776;2022-07-23T05:19:47;101560.78;;;14.49;100.00
9325;BME280;4701;51.566;6.776;2022-07-23T05:21:49;101556.66;;;14.56;100.00
9325;BME280;4701;51.566;6.776;2022-07-23T05:23:50;101559.16;;;14.63;100.00
9325;BME280;4701;51.566;6.776;2022-07-23T05:25:53;101556.97;;;14.70;100.00
9325;BME280;4701;51.566;6.776;2022-07-23T05:27:55;101563.00;;;14.77;100.00
9325;BME280;4701;51.566;6.776;2022-07-23T05:29:57;101564.63;;;14.83;100.00
9325;BME280;4701;51.566;6.776;2022-07-23T05:31:59;101563.81;;;14.88;100.00
9325;BME280;4701;51.566;6.776;2022-07-23T05:34:05;101572.88;;;14.93;100.00
9325;BME280;4701;51.566;6.776;2022-07-23T05:36:10;101570.38;;;15.02;100.00
9325;BME280;4701;51.566;6.776;2022-07-23T05:38:19;101572.84;;;15.08;100.00
9325;BME280;4701;51.566;6.776;2022-07-23T05:40:23;101568.19;;;15.09;100.00
9325;BME280;4701;51.566;6.776;2022-07-23T05:42:25;101571.47;;;15.16;100.00
9325;BME280;4701;51.566;6.776;2022-07-23T05:44:27;101576.97;;;15.21;100.00
9325;BME280;4701;51.566;6.776;2022-07-23T05:46:29;101578.59;;;15.27;100.00
9325;BME280;4701;51.566;6.776;2022-07-23T05:48:36;101580.75;;;15.35;100.00
9325;BME280;4701;51.566;6.776;2022-07-23T05:50:43;101587.34;;;15.39;100.00
9325;BME280;4701;51.566;6.776;2022-07-23T05:52:56;101574.16;;;15.41;100.00
9325;BME280;4701;51.566;6.776;2022-07-23T05:55:34;101574.97;;;15.42;100.00
9325;BME280;4701;51.566;6.776;2022-07-23T05:57:36;101572.47;;;15.50;100.00
9325;BME280;4701;51.566;6.776;2022-07-23T05:59:38;101578.25;;;15.59;100.00
9325;BME280;4701;51.566;6.776;2022-07-23T06:01:40;101579.59;;;15.67;100.00
9325;BME280;4701;51.566;6.776;2022-07-23T06:03:45;101586.75;;;15.73;99.67
9325;BME280;4701;51.566;6.776;2022-07-23T06:05:47;101586.19;;;15.71;98.45
9325;BME280;4701;51.566;6.776;2022-07-23T06:07:49;101596.06;;;15.77;98.09
9325;BME280;4701;51.566;6.776;2022-07-23T06:09:52;101592.75;;;15.80;97.72
9325;BME280;4701;51.566;6.776;2022-07-23T06:11:55;101605.66;;;15.84;97.82
9325;BME280;4701;51.566;6.776;2022-07-23T06:13:57;101590.53;;;15.87;98.06
9325;BME280;4701;51.566;6.776;2022-07-23T06:16:13;101592.69;;;15.95;97.57
9325;BME280;4701;51.566;6.776;2022-07-23T06:18:15;101600.66;;;15.97;96.32
9325;BME280;4701;51.566;6.776;2022-07-23T06:20:16;101605.06;;;15.98;96.13
9325;BME280;4701;51.566;6.776;2022-07-23T06:22:19;101608.31;;;16.05;96.47
9325;BME280;4701;51.566;6.776;2022-07-23T06:24:21;101605.53;;;16.10;95.95
9325;BME280;4701;51.566;6.776;2022-07-23T06:26:25;101603.59;;;16.15;95.77
9325;BME280;4701;51.566;6.776;2022-07-23T06:28:27;101605.75;;;16.23;95.81
9325;BME280;4701;51.566;6.776;2022-07-23T06:30:29;101602.97;;;16.28;95.68
9325;BME280;4701;51.566;6.776;2022-07-23T06:32:31;101609.50;;;16.38;96.63
9325;BME280;4701;51.566;6.776;2022-07-23T06:34:36;101605.66;;;16.39;95.32
9325;BME280;4701;51.566;6.776;2022-07-23T06:36:38;101607.81;;;16.42;94.93
9325;BME280;4701;51.566;6.776;2022-07-23T06:38:40;101607.25;;;16.50;94.20
9325;BME280;4701;51.566;6.776;2022-07-23T06:40:42;101598.66;;;16.56;93.47
9325;BME280;4701;51.566;6.776;2022-07-23T06:42:45;101614.88;;;16.63;93.71
9325;BME280;4701;51.566;6.776;2022-07-23T06:44:55;101612.41;;;16.67;93.44
9325;BME280;4701;51.566;6.776;2022-07-23T06:46:58;101620.31;;;16.73;93.31
9325;BME280;4701;51.566;6.776;2022-07-23T06:48:59;101612.28;;;16.77;93.30
9325;BME280;4701;51.566;6.776;2022-07-23T06:51:04;101609.75;;;16.85;93.57
9325;BME280;4701;51.566;6.776;2022-07-23T06:53:05;101615.50;;;16.89;93.87
9325;BME280;4701;51.566;6.776;2022-07-23T06:55:08;101613.50;;;16.99;93.50
9325;BME280;4701;51.566;6.776;2022-07-23T06:57:10;101617.31;;;17.03;93.52
9325;BME280;4701;51.566;6.776;2022-07-23T06:59:13;101613.09;;;17.11;93.46
9325;BME280;4701;51.566;6.776;2022-07-23T07:01:17;101610.34;;;17.11;92.88
9325;BME280;4701;51.566;6.776;2022-07-23T07:03:19;101615.56;;;17.18;92.63
9325;BME280;4701;51.566;6.776;2022-07-23T07:05:21;101620.72;;;17.24;91.15
9325;BME280;4701;51.566;6.776;2022-07-23T07:07:23;101618.72;;;17.30;91.50
9325;BME280;4701;51.566;6.776;2022-07-23T07:09:25;101619.75;;;17.39;92.05
9325;BME280;4701;51.566;6.776;2022-07-23T07:11:27;101620.50;;;17.45;91.94
9325;BME280;4701;51.566;6.776;2022-07-23T07:13:29;101613.56;;;17.52;90.89
9325;BME280;4701;51.566;6.776;2022-07-23T07:15:33;101623.13;;;17.60;89.07
9325;BME280;4701;51.566;6.776;2022-07-23T07:17:35;101624.50;;;17.57;87.84
9325;BME280;4701;51.566;6.776;2022-07-23T07:19:37;101616.78;;;17.59;87.85
9325;BME280;4701;51.566;6.776;2022-07-23T07:21:39;101615.69;;;17.60;85.64
9325;BME280;4701;51.566;6.776;2022-07-23T07:23:41;101615.19;;;17.53;83.27
9325;BME280;4701;51.566;6.776;2022-07-23T07:25:43;101622.59;;;17.58;79.95
9325;BME280;4701;51.566;6.776;2022-07-23T07:27:45;101623.41;;;17.58;81.03
9325;BME280;4701;51.566;6.776;2022-07-23T07:29:47;101628.59;;;17.65;82.62
9325;BME280;4701;51.566;6.776;2022-07-23T07:31:50;101630.47;;;17.69;82.32
9325;BME280;4701;51.566;6.776;2022-07-23T07:33:52;101630.34;;;17.80;82.64
9325;BME280;4701;51.566;6.776;2022-07-23T07:35:57;101636.34;;;17.87;82.06
9325;BME280;4701;51.566;6.776;2022-07-23T07:37:59;101633.81;;;17.90;79.59
9325;BME280;4701;51.566;6.776;2022-07-23T07:40:01;101635.72;;;17.95;79.31
9325;BME280;4701;51.566;6.776;2022-07-23T07:42:03;101642.34;;;17.94;78.53
9325;BME280;4701;51.566;6.776;2022-07-23T07:44:05;101637.31;;;17.96;78.28
9325;BME280;4701;51.566;6.776;2022-07-23T07:46:07;101631.22;;;17.99;78.22
9325;BME280;4701;51.566;6.776;2022-07-23T07:48:11;101638.59;;;18.03;78.14
9325;BME280;4701;51.566;6.776;2022-07-23T07:50:15;101634.97;;;18.08;78.71
9325;BME280;4701;51.566;6.776;2022-07-23T07:52:22;101632.81;;;18.05;78.36
9325;BME280;4701;51.566;6.776;2022-07-23T07:54:24;101638.03;;;18.06;76.01
9325;BME280;4701;51.566;6.776;2022-07-23T07:56:26;101630.41;;;17.98;76.53
9325;BME280;4701;51.566;6.776;2022-07-23T07:58:28;101639.22;;;18.00;77.91
9325;BME280;4701;51.566;6.776;2022-07-23T08:00:30;101644.44;;;18.02;76.52
9325;BME280;4701;51.566;6.776;2022-07-23T08:02:40;101643.50;;;18.11;76.87
9325;BME280;4701;51.566;6.776;2022-07-23T08:04:46;101661.47;;;18.09;75.32
9325;BME280;4701;51.566;6.776;2022-07-23T08:06:49;101654.47;;;18.17;74.66
9325;BME280;4701;51.566;6.776;2022-07-23T08:08:51;101657.47;;;18.20;74.39
9325;BME280;4701;51.566;6.776;2022-07-23T08:10:53;101658.25;;;18.21;73.72
9325;BME280;4701;51.566;6.776;2022-07-23T08:12:56;101657.38;;;18.25;74.30
9325;BME280;4701;51.566;6.776;2022-07-23T08:14:58;101655.06;;;18.32;74.55
9325;BME280;4701;51.566;6.776;2022-07-23T08:17:09;101658.94;;;18.31;73.25
9325;BME280;4701;51.566;6.776;2022-07-23T08:19:11;101658.09;;;18.36;73.61
9325;BME280;4701;51.566;6.776;2022-07-23T08:21:14;101659.94;;;18.40;72.75
9325;BME280;4701;51.566;6.776;2022-07-23T08:23:16;101660.75;;;18.41;71.89
9325;BME280;4701;51.566;6.776;2022-07-23T08:25:21;101668.16;;;18.45;71.75
9325;BME280;4701;51.566;6.776;2022-07-23T08:27:27;101666.53;;;18.44;71.45
9325;BME280;4701;51.566;6.776;2022-07-23T08:29:30;101649.56;;;18.51;70.35
9325;BME280;4701;51.566;6.776;2022-07-23T08:31:32;101655.59;;;18.77;71.38
9325;BME280;4701;51.566;6.776;2022-07-23T08:33:34;101652.88;;;18.72;70.23
9325;BME280;4701;51.566;6.776;2022-07-23T08:35:37;101659.22;;;18.72;68.99
9325;BME280;4701;51.566;6.776;2022-07-23T08:37:41;101660.06;;;18.73;69.45
9325;BME280;4701;51.566;6.776;2022-07-23T08:39:43;101658.50;;;18.85;70.04
9325;BME280;4701;51.566;6.776;2022-07-23T08:41:45;101654.53;;;18.92;70.60
9325;BME280;4701;51.566;6.776;2022-07-23T08:43:48;101663.34;;;18.94;69.59
9325;BME280;4701;51.566;6.776;2022-07-23T08:45:52;101654.75;;;18.76;67.35
9325;BME280;4701;51.566;6.776;2022-07-23T08:47:57;101661.09;;;18.77;67.68
9325;BME280;4701;51.566;6.776;2022-07-23T08:50:00;101658.78;;;18.84;67.47
9325;BME280;4701;51.566;6.776;2022-07-23T08:52:06;101653.78;;;18.86;67.83
9325;BME280;4701;51.566;6.776;2022-07-23T08:54:11;101654.22;;;18.93;68.38
9325;BME280;4701;51.566;6.776;2022-07-23T08:56:13;101661.28;;;18.99;67.29
9325;BME280;4701;51.566;6.776;2022-07-23T08:58:15;101662.88;;;19.05;66.16
9325;BME280;4701;51.566;6.776;2022-07-23T09:00:19;101646.47;;;18.95;67.37
9325;BME280;4701;51.566;6.776;2022-07-23T09:02:22;101654.66;;;19.00;65.91
9325;BME280;4701;51.566;6.776;2022-07-23T09:04:24;101652.94;;;19.04;66.80
9325;BME280;4701;51.566;6.776;2022-07-23T09:06:26;101663.16;;;19.04;65.55
9325;BME280;4701;51.566;6.776;2022-07-23T09:08:34;101660.72;;;19.02;64.36
9325;BME280;4701;51.566;6.776;2022-07-23T09:10:46;101661.66;;;19.11;65.10
9325;BME280;4701;51.566;6.776;2022-07-23T09:12:51;101658.41;;;19.23;65.79
9325;BME280;4701;51.566;6.776;2022-07-23T09:14:56;101661.94;;;19.28;64.32
9325;BME280;4701;51.566;6.776;2022-07-23T09:17:11;101660.72;;;19.35;62.88
9325;BME280;4701;51.566;6.776;2022-07-23T09:19:13;101664.59;;;19.34;63.80
9325;BME280;4701;51.566;6.776;2022-07-23T09:21:23;101662.25;;;19.41;65.05
9325;BME280;4701;51.566;6.776;2022-07-23T09:23:36;101660.81;;;19.43;63.25
9325;BME280;4701;51.566;6.776;2022-07-23T09:25:38;101662.09;;;19.51;63.29
9325;BME280;4701;51.566;6.776;2022-07-23T09:27:52;101659.56;;;19.54;61.93
9325;BME280;4701;51.566;6.776;2022-07-23T09:29:55;101652.09;;;19.55;62.72
9325;BME280;4701;51.566;6.776;2022-07-23T09:31:59;101661.41;;;19.59;63.15
9325;BME280;4701;51.566;6.776;2022-07-23T09:34:10;101660.53;;;19.45;62.22
9325;BME280;4701;51.566;6.776;2022-07-23T09:36:12;101663.97;;;19.55;63.58
9325;BME280;4701;51.566;6.776;2022-07-23T09:38:15;101670.44;;;19.64;62.60
9325;BME280;4701;51.566;6.776;2022-07-23T09:40:19;101668.47;;;19.65;62.69
9325;BME280;4701;51.566;6.776;2022-07-23T09:42:24;101665.72;;;19.79;63.35
9325;BME280;4701;51.566;6.776;2022-07-23T09:44:28;101655.91;;;19.86;63.15
9325;BME280;4701;51.566;6.776;2022-07-23T09:46:32;101658.56;;;19.78;60.31
9325;BME280;4701;51.566;6.776;2022-07-23T09:48:34;101662.78;;;19.89;61.53
9325;BME280;4701;51.566;6.776;2022-07-23T09:50:36;101657.34;;;19.97;60.61
9325;BME280;4701;51.566;6.776;2022-07-23T09:52:43;101664.28;;;20.09;61.66
9325;BME280;4701;51.566;6.776;2022-07-23T09:54:46;101657.44;;;20.06;60.74
9325;BME280;4701;51.566;6.776;2022-07-23T09:57:02;101665.84;;;20.01;59.87
9325;BME280;4701;51.566;6.776;2022-07-23T09:59:04;101662.47;;;20.04;60.42
9325;BME280;4701;51.566;6.776;2022-07-23T10:01:09;101662.88;;;20.11;60.60
9325;BME280;4701;51.566;6.776;2022-07-23T10:03:12;101660.63;;;20.13;60.24
9325;BME280;4701;51.566;6.776;2022-07-23T10:05:15;101664.09;;;20.19;59.49
9325;BME280;4701;51.566;6.776;2022-07-23T10:07:42;101665.13;;;20.36;59.96
9325;BME280;4701;51.566;6.776;2022-07-23T10:10:11;101654.44;;;20.44;59.55
9325;BME280;4701;51.566;6.776;2022-07-23T10:12:33;101656.16;;;20.67;56.93
9325;BME280;4701;51.566;6.776;2022-07-23T10:14:52;101663.28;;;20.68;56.10
9325;BME280;4701;51.566;6.776;2022-07-23T10:17:00;101656.44;;;20.65;56.05
9325;BME280;4701;51.566;6.776;2022-07-23T10:19:02;101663.13;;;20.64;57.15
9325;BME280;4701;51.566;6.776;2022-07-23T10:21:07;101658.78;;;20.72;57.09
9325;BME280;4701;51.566;6.776;2022-07-23T10:23:17;101657.22;;;20.80;56.79
9325;BME280;4701;51.566;6.776;2022-07-23T10:25:26;101654.59;;;20.97;57.51
9325;BME280;4701;51.566;6.776;2022-07-23T10:30:09;101645.75;;;20.95;56.45
9325;BME280;4701;51.566;6.776;2022-07-23T10:32:20;101648.22;;;20.96;56.67
9325;BME280;4701;51.566;6.776;2022-07-23T10:34:36;101650.69;;;20.98;57.41
9325;BME280;4701;51.566;6.776;2022-07-23T10:36:47;101643.41;;;21.10;57.53
9325;BME280;4701;51.566;6.776;2022-07-23T10:38:54;101644.44;;;21.14;57.19
9325;BME280;4701;51.566;6.776;2022-07-23T10:41:03;101644.13;;;21.16;56.62
9325;BME280;4701;51.566;6.776;2022-07-23T10:43:13;101649.06;;;21.19;54.89
9325;BME280;4701;51.566;6.776;2022-07-23T10:45:25;101645.97;;;21.21;54.85
9325;BME280;4701;51.566;6.776;2022-07-23T10:47:32;101646.78;;;21.21;53.22
9325;BME280;4701;51.566;6.776;2022-07-23T10:49:41;101648.59;;;21.03;52.45
9325;BME280;4701;51.566;6.776;2022-07-23T10:54:33;101653.06;;;21.13;53.56
9325;BME280;4701;51.566;6.776;2022-07-23T10:57:05;101652.41;;;21.30;52.83
9325;BME280;4701;51.566;6.776;2022-07-23T10:59:11;101642.50;;;21.37;52.13
9325;BME280;4701;51.566;6.776;2022-07-23T11:01:32;101650.28;;;21.35;51.85
9325;BME280;4701;51.566;6.776;2022-07-23T11:03:37;101645.31;;;21.46;53.36
9325;BME280;4701;51.566;6.776;2022-07-23T11:05:41;101647.03;;;21.64;53.15
9325;BME280;4701;51.566;6.776;2022-07-23T11:08:14;101639.00;;;21.54;51.54
9325;BME280;4701;51.566;6.776;2022-07-23T11:10:32;101656.19;;;21.65;51.21
9325;BME280;4701;51.566;6.776;2022-07-23T11:12:35;101648.88;;;21.69;51.49
9325;BME280;4701;51.566;6.776;2022-07-23T11:15:01;101649.00;;;21.64;50.23
9325;BME280;4701;51.566;6.776;2022-07-23T11:17:19;101649.31;;;21.62;50.72
9325;BME280;4701;51.566;6.776;2022-07-23T11:19:25;101647.06;;;21.73;50.51
9325;BME280;4701;51.566;6.776;2022-07-23T11:21:47;101646.31;;;21.89;50.96
9325;BME280;4701;51.566;6.776;2022-07-23T11:23:58;101648.78;;;21.91;51.23
9325;BME280;4701;51.566;6.776;2022-07-23T11:26:00;101654.56;;;22.03;51.91
9325;BME280;4701;51.566;6.776;2022-07-23T11:28:17;101654.84;;;21.93;49.19
9325;BME280;4701;51.566;6.776;2022-07-23T11:30:37;101655.25;;;22.09;50.73
9325;BME280;4701;51.566;6.776;2022-07-23T11:32:40;101653.13;;;22.14;50.22
9325;BME280;4701;51.566;6.776;2022-07-23T11:34:45;101650.25;;;22.28;49.96
9325;BME280;4701;51.566;6.776;2022-07-23T11:36:51;101650.25;;;22.28;49.95
9325;BME280;4701;51.566;6.776;2022-07-23T11:38:53;101655.28;;;22.17;49.20
9325;BME280;4701;51.566;6.776;2022-07-23T11:40:59;101649.25;;;22.33;49.83
9325;BME280;4701;51.566;6.776;2022-07-23T11:43:04;101648.28;;;22.37;49.62
9325;BME280;4701;51.566;6.776;2022-07-23T11:45:08;101646.66;;;22.36;48.71
9325;BME280;4701;51.566;6.776;2022-07-23T11:47:25;101649.59;;;22.48;49.03
9325;BME280;4701;51.566;6.776;2022-07-23T11:49:28;101647.97;;;22.56;48.45
9325;BME280;4701;51.566;6.776;2022-07-23T11:51:31;101649.47;;;22.53;47.82
9325;BME280;4701;51.566;6.776;2022-07-23T11:53:33;101653.69;;;22.51;47.94
9325;BME280;4701;51.566;6.776;2022-07-23T11:55:36;101652.72;;;22.64;49.36
9325;BME280;4701;51.566;6.776;2022-07-23T11:57:39;101653.72;;;22.68;47.51
9325;BME280;4701;51.566;6.776;2022-07-23T11:59:42;101647.88;;;22.78;48.72
9325;BME280;4701;51.566;6.776;2022-07-23T12:01:56;101639.84;;;23.02;49.33
9325;BME280;4701;51.566;6.776;2022-07-23T12:03:58;101642.91;;;23.18;47.92
9325;BME280;4701;51.566;6.776;2022-07-23T12:06:00;101627.03;;;23.27;48.16
9325;BME280;4701;51.566;6.776;2022-07-23T12:08:07;101628.28;;;23.47;49.66
9325;BME280;4701;51.566;6.776;2022-07-23T12:10:14;101633.50;;;23.57;48.56
9325;BME280;4701;51.566;6.776;2022-07-23T12:12:16;101632.19;;;23.63;46.23
9325;BME280;4701;51.566;6.776;2022-07-23T12:14:18;101633.53;;;23.49;46.04
9325;BME280;4701;51.566;6.776;2022-07-23T12:16:20;101621.28;;;23.32;47.47
9325;BME280;4701;51.566;6.776;2022-07-23T12:18:24;101613.09;;;23.36;48.60
9325;BME280;4701;51.566;6.776;2022-07-23T12:20:35;101627.16;;;23.39;49.23
9325;BME280;4701;51.566;6.776;2022-07-23T12:22:39;101627.81;;;23.45;49.34
9325;BME280;4701;51.566;6.776;2022-07-23T12:25:00;101628.28;;;23.47;46.01
9325;BME280;4701;51.566;6.776;2022-07-23T12:27:09;101630.59;;;23.36;45.59
9325;BME280;4701;51.566;6.776;2022-07-23T12:29:12;101629.16;;;23.30;46.83
9325;BME280;4701;51.566;6.776;2022-07-23T12:31:14;101629.97;;;23.22;46.18
9325;BME280;4701;51.566;6.776;2022-07-23T12:33:22;101630.44;;;23.33;46.38
9325;BME280;4701;51.566;6.776;2022-07-23T12:35:32;101623.91;;;23.37;47.08
9325;BME280;4701;51.566;6.776;2022-07-23T12:37:36;101627.63;;;23.50;46.03
9325;BME280;4701;51.566;6.776;2022-07-23T12:39:38;101629.44;;;23.46;46.71
9325;BME280;4701;51.566;6.776;2022-07-23T12:41:53;101623.53;;;23.56;47.75
9325;BME280;4701;51.566;6.776;2022-07-23T12:43:55;101623.31;;;23.70;47.54
9325;BME280;4701;51.566;6.776;2022-07-23T12:46:03;101626.03;;;23.87;47.07
9325;BME280;4701;51.566;6.776;2022-07-23T12:48:05;101635.22;;;23.79;44.44
9325;BME280;4701;51.566;6.776;2022-07-23T12:50:07;101629.66;;;23.79;46.17
9325;BME280;4701;51.566;6.776;2022-07-23T12:52:15;101624.78;;;24.05;46.24
9325;BME280;4701;51.566;6.776;2022-07-23T12:54:26;101626.81;;;24.26;45.57
9325;BME280;4701;51.566;6.776;2022-07-23T12:56:30;101635.81;;;24.31;44.76
9325;BME280;4701;51.566;6.776;2022-07-23T12:58:45;101627.81;;;24.21;45.04
9325;BME280;4701;51.566;6.776;2022-07-23T13:01:00;101626.84;;;24.46;46.41
9325;BME280;4701;51.566;6.776;2022-07-23T13:03:02;101624.31;;;24.54;44.69
9325;BME280;4701;51.566;6.776;2022-07-23T13:05:05;101631.56;;;24.87;45.70
9325;BME280;4701;51.566;6.776;2022-07-23T13:07:06;101625.09;;;25.16;44.97
9325;BME280;4701;51.566;6.776;2022-07-23T13:09:17;101633.78;;;25.48;43.55
9325;BME280;4701;51.566;6.776;2022-07-23T13:11:19;101634.56;;;25.36;44.35
9325;BME280;4701;51.566;6.776;2022-07-23T13:13:22;101632.84;;;25.56;43.62
9325;BME280;4701;51.566;6.776;2022-07-23T13:15:25;101636.03;;;25.79;43.29
9325;BME280;4701;51.566;6.776;2022-07-23T13:17:27;101633.50;;;25.74;42.17
9325;BME280;4701;51.566;6.776;2022-07-23T13:19:29;101635.84;;;25.84;41.93
9325;BME280;4701;51.566;6.776;2022-07-23T13:24:37;101632.69;;;25.85;41.64
9325;BME280;4701;51.566;6.776;2022-07-23T13:26:39;101640.91;;;25.70;41.38
9325;BME280;4701;51.566;6.776;2022-07-23T13:28:42;101630.56;;;26.07;41.72
9325;BME280;4701;51.566;6.776;2022-07-23T13:30:46;101641.28;;;26.41;41.17
9325;BME280;4701;51.566;6.776;2022-07-23T13:32:50;101626.88;;;26.27;40.13
9325;BME280;4701;51.566;6.776;2022-07-23T13:34:51;101633.81;;;26.85;40.24
9325;BME280;4701;51.566;6.776;2022-07-23T13:36:53;101623.41;;;28.20;37.43
9325;BME280;4701;51.566;6.776;2022-07-23T13:38:55;101620.50;;;29.48;35.24
9325;BME280;4701;51.566;6.776;2022-07-23T13:40:58;101622.00;;;29.42;33.06
9325;BME280;4701;51.566;6.776;2022-07-23T13:43:00;101611.66;;;29.72;32.95
9325;BME280;4701;51.566;6.776;2022-07-23T13:45:02;101615.59;;;29.45;31.38
9325;BME280;4701;51.566;6.776;2022-07-23T13:47:06;101603.72;;;28.90;33.38
9325;BME280;4701;51.566;6.776;2022-07-23T13:49:08;101603.41;;;28.56;34.52
9325;BME280;4701;51.566;6.776;2022-07-23T13:51:09;101611.41;;;28.04;34.45
9325;BME280;4701;51.566;6.776;2022-07-23T13:53:14;101609.00;;;26.84;36.99
9325;BME280;4701;51.566;6.776;2022-07-23T13:55:16;101608.69;;;26.45;37.49
9325;BME280;4701;51.566;6.776;2022-07-23T13:57:18;101604.84;;;26.25;37.22
9325;BME280;4701;51.566;6.776;2022-07-23T13:59:20;101596.00;;;26.35;39.47
9325;BME280;4701;51.566;6.776;2022-07-23T14:01:28;101601.88;;;26.46;38.93
9325;BME280;4701;51.566;6.776;2022-07-23T14:03:32;101596.41;;;26.50;38.11
9325;BME280;4701;51.566;6.776;2022-07-23T14:05:34;101599.16;;;25.97;37.81
9325;BME280;4701;51.566;6.776;2022-07-23T14:07:37;101595.31;;;25.78;38.87
9325;BME280;4701;51.566;6.776;2022-07-23T14:09:40;101600.66;;;25.58;39.39
9325;BME280;4701;51.566;6.776;2022-07-23T14:11:42;101594.13;;;25.54;38.47
9325;BME280;4701;51.566;6.776;2022-07-23T14:13:44;101592.59;;;25.33;39.23
9325;BME280;4701;51.566;6.776;2022-07-23T14:15:46;101596.53;;;25.44;40.97
9325;BME280;4701;51.566;6.776;2022-07-23T14:17:48;101598.97;;;25.33;38.87
9325;BME280;4701;51.566;6.776;2022-07-23T14:19:51;101600.09;;;25.65;38.91
9325;BME280;4701;51.566;6.776;2022-07-23T14:21:53;101593.94;;;25.72;40.13
9325;BME280;4701;51.566;6.776;2022-07-23T14:23:55;101599.72;;;26.03;38.82
9325;BME280;4701;51.566;6.776;2022-07-23T14:25:57;101594.84;;;25.63;38.98
9325;BME280;4701;51.566;6.776;2022-07-23T14:27:59;101592.84;;;26.13;39.47
9325;BME280;4701;51.566;6.776;2022-07-23T14:30:01;101593.53;;;26.22;39.91
9325;BME280;4701;51.566;6.776;2022-07-23T14:32:04;101595.53;;;26.33;39.40
9325;BME280;4701;51.566;6.776;2022-07-23T14:34:06;101598.66;;;26.44;38.33
9325;BME280;4701;51.566;6.776;2022-07-23T14:36:09;101598.25;;;26.58;38.32
9325;BME280;4701;51.566;6.776;2022-07-23T14:38:11;101604.81;;;26.50;38.07
9325;BME280;4701;51.566;6.776;2022-07-23T14:40:13;101601.19;;;26.49;38.22
9325;BME280;4701;51.566;6.776;2022-07-23T14:42:15;101593.75;;;26.53;37.21
9325;BME280;4701;51.566;6.776;2022-07-23T14:44:17;101587.88;;;26.58;38.49
9325;BME280;4701;51.566;6.776;2022-07-23T14:46:19;101589.22;;;26.77;37.47
9325;BME280;4701;51.566;6.776;2022-07-23T14:48:21;101595.44;;;26.70;36.79
9325;BME280;4701;51.566;6.776;2022-07-23T14:50:23;101585.59;;;26.76;37.30
9325;BME280;4701;51.566;6.776;2022-07-23T14:52:26;101586.06;;;26.78;37.41
9325;BME280;4701;51.566;6.776;2022-07-23T14:54:28;101582.03;;;27.03;36.92
9325;BME280;4701;51.566;6.776;2022-07-23T14:56:31;101585.97;;;27.02;37.39
9325;BME280;4701;51.566;6.776;2022-07-23T14:58:37;101586.09;;;26.66;37.90
9325;BME280;4701;51.566;6.776;2022-07-23T15:00:38;101589.16;;;26.61;37.19
9325;BME280;4701;51.566;6.776;2022-07-23T15:02:40;101590.00;;;26.49;37.91
9325;BME280;4701;51.566;6.776;2022-07-23T15:04:45;101589.75;;;25.90;38.38
9325;BME280;4701;51.566;6.776;2022-07-23T15:06:47;101576.97;;;25.77;39.28
9325;BME280;4701;51.566;6.776;2022-07-23T15:08:51;101583.56;;;25.96;40.16
9325;BME280;4701;51.566;6.776;2022-07-23T15:10:53;101581.59;;;26.09;38.47
9325;BME280;4701;51.566;6.776;2022-07-23T15:12:56;101581.66;;;26.25;38.64
9325;BME280;4701;51.566;6.776;2022-07-23T15:14:57;101579.13;;;26.32;37.45
9325;BME280;4701;51.566;6.776;2022-07-23T15:17:00;101585.63;;;26.24;37.37
9325;BME280;4701;51.566;6.776;2022-07-23T15:19:03;101579.91;;;26.20;38.50
9325;BME280;4701;51.566;6.776;2022-07-23T15:21:05;101587.84;;;26.30;39.09
9325;BME280;4701;51.566;6.776;2022-07-23T15:23:08;101582.97;;;26.15;37.77
9325;BME280;4701;51.566;6.776;2022-07-23T15:25:11;101588.94;;;25.89;38.94
9325;BME280;4701;51.566;6.776;2022-07-23T15:27:13;101591.81;;;26.17;38.38
9325;BME280;4701;51.566;6.776;2022-07-23T15:29:17;101586.94;;;25.78;38.02
9325;BME280;4701;51.566;6.776;2022-07-23T15:31:19;101593.81;;;25.68;39.39
9325;BME280;4701;51.566;6.776;2022-07-23T15:33:22;101596.25;;;25.70;39.04
9325;BME280;4701;51.566;6.776;2022-07-23T15:35:23;101584.53;;;25.76;40.22
9325;BME280;4701;51.566;6.776;2022-07-23T15:37:26;101595.09;;;25.83;40.94
9325;BME280;4701;51.566;6.776;2022-07-23T15:39:28;101593.09;;;25.95;39.69
9325;BME280;4701;51.566;6.776;2022-07-23T15:41:34;101589.38;;;26.04;39.46
9325;BME280;4701;51.566;6.776;2022-07-23T15:43:36;101597.88;;;26.19;39.38
9325;BME280;4701;51.566;6.776;2022-07-23T15:45:38;101597.63;;;26.12;38.20
9325;BME280;4701;51.566;6.776;2022-07-23T15:47:41;101592.28;;;26.19;38.83
9325;BME280;4701;51.566;6.776;2022-07-23T15:49:43;101592.06;;;26.00;40.88
9325;BME280;4701;51.566;6.776;2022-07-23T15:51:45;101591.47;;;26.19;38.90
9325;BME280;4701;51.566;6.776;2022-07-23T15:53:47;101590.69;;;26.58;39.12
9325;BME280;4701;51.566;6.776;2022-07-23T15:55:49;101577.84;;;26.97;38.67
9325;BME280;4701;51.566;6.776;2022-07-23T15:57:52;101580.06;;;27.20;36.76
9325;BME280;4701;51.566;6.776;2022-07-23T15:59:54;101571.47;;;27.13;37.84
9325;BME280;4701;51.566;6.776;2022-07-23T16:01:57;101583.34;;;26.94;37.22
9325;BME280;4701;51.566;6.776;2022-07-23T16:03:59;101573.78;;;26.95;38.46
9325;BME280;4701;51.566;6.776;2022-07-23T16:06:02;101580.53;;;26.94;38.75
9325;BME280;4701;51.566;6.776;2022-07-23T16:08:10;101578.22;;;26.56;38.89
9325;BME280;4701;51.566;6.776;2022-07-23T16:10:12;101577.25;;;26.24;38.84
9325;BME280;4701;51.566;6.776;2022-07-23T16:12:26;101573.19;;;26.33;38.49
9325;BME280;4701;51.566;6.776;2022-07-23T16:14:29;101574.06;;;26.50;39.52
9325;BME280;4701;51.566;6.776;2022-07-23T16:16:31;101567.50;;;26.58;38.19
9325;BME280;4701;51.566;6.776;2022-07-23T16:18:33;101574.09;;;26.65;39.40
9325;BME280;4701;51.566;6.776;2022-07-23T16:20:35;101568.00;;;26.75;39.05